createdAt,value
2023-11-06T00:03:29.489Z,11.8
2023-11-06T00:09:20.137Z,11.8
2023-11-06T00:15:12.791Z,11.7
2023-11-06T00:21:15.838Z,11.7
2023-11-06T00:27:06.659Z,11.6
2023-11-06T00:32:58.305Z,11.6
2023-11-06T00:38:53.860Z,11.6
2023-11-06T00:44:45.034Z,11.6
2023-11-06T00:50:37.430Z,11.6
2023-11-06T00:56:29.154Z,11.5
2023-11-06T01:02:04.837Z,11.5
2023-11-06T01:07:42.122Z,11.4
2023-11-06T01:13:18.881Z,11.4
2023-11-06T01:18:39.661Z,11.4
2023-11-06T01:24:25.894Z,11.3
2023-11-06T01:30:17.378Z,11.2
2023-11-06T01:35:53.961Z,11.3
2023-11-06T01:41:29.856Z,11.3
2023-11-06T01:47:22.405Z,11.3
2023-11-06T01:53:14.022Z,11.1
2023-11-06T01:58:49.792Z,11
2023-11-06T02:04:42.607Z,10.8
2023-11-06T02:10:18.641Z,10.7
2023-11-06T02:16:11.144Z,10.6
2023-11-06T02:22:14.102Z,10.4
2023-11-06T02:28:06.317Z,10.2
2023-11-06T02:33:58.624Z,10
2023-11-06T02:39:51.479Z,9.8
2023-11-06T02:45:44.049Z,9.7
2023-11-06T02:51:37.728Z,9.6
2023-11-06T02:57:30.047Z,9.4
2023-11-06T03:03:21.943Z,9.3
2023-11-06T03:09:14.860Z,9.2
2023-11-06T03:15:06.985Z,9.2
2023-11-06T03:20:58.800Z,9.1
2023-11-06T03:26:50.623Z,9.2
2023-11-06T03:32:43.014Z,9.1
2023-11-06T03:38:35.292Z,9
2023-11-06T03:44:28.038Z,8.8
2023-11-06T03:50:24.609Z,8.7
2023-11-06T03:56:15.511Z,8.6
2023-11-06T04:01:52.057Z,8.4
2023-11-06T04:07:45.053Z,8.4
2023-11-06T04:13:39.529Z,8.4
2023-11-06T04:19:33.064Z,8.4
2023-11-06T04:25:25.478Z,8.5
2023-11-06T04:31:16.964Z,8.6
2023-11-06T04:36:53.837Z,8.6
2023-11-06T04:42:47.839Z,8.5
2023-11-06T04:48:39.767Z,8.4
2023-11-06T04:54:31.707Z,8.4
2023-11-06T05:00:23.640Z,8.3
2023-11-06T05:06:04.666Z,8.3
2023-11-06T05:11:56.264Z,8.1
2023-11-06T05:17:47.821Z,8
2023-11-06T05:23:28.769Z,7.9
2023-11-06T05:29:20.679Z,7.8
2023-11-06T05:34:58.097Z,7.8
2023-11-06T05:40:34.963Z,7.9
2023-11-06T05:46:10.924Z,8.8
2023-11-06T05:52:03.564Z,10.8
2023-11-06T05:57:43.953Z,13.1
2023-11-06T06:03:22.509Z,15.8
2023-11-06T06:08:59.345Z,18.6
2023-11-06T06:14:37.683Z,21.5
2023-11-06T06:20:15.423Z,24.6
2023-11-06T06:25:52.015Z,27.7
2023-11-06T06:31:30.257Z,30.7
2023-11-06T06:36:51.988Z,33.6
2023-11-06T06:42:28.679Z,38.5
2023-11-06T06:47:49.139Z,37.4
2023-11-06T06:53:26.314Z,34.2
2023-11-06T06:59:03.303Z,34.4
2023-11-06T07:04:39.915Z,34.3
2023-11-06T07:10:17.791Z,34.3
2023-11-06T07:15:54.580Z,34.7
2023-11-06T07:21:31.481Z,35.3
2023-11-06T07:26:53.458Z,35.8
2023-11-06T07:32:30.394Z,35.9
2023-11-06T07:38:23.215Z,36.9
2023-11-06T07:43:59.909Z,39.2
2023-11-06T07:49:37.639Z,40.8
2023-11-06T07:55:13.950Z,41.8
2023-11-06T08:01:04.549Z,42.8
2023-11-06T08:06:57.731Z,44.3
2023-11-06T08:12:35.869Z,45.6
2023-11-06T08:18:14.128Z,46.4
2023-11-06T08:23:52.124Z,47.3
2023-11-06T08:29:43.826Z,48.6
2023-11-06T08:35:38.313Z,49.6
2023-11-06T08:41:31.056Z,50.8
2023-11-06T08:47:07.235Z,51.6
2023-11-06T08:52:50.316Z,52.1
2023-11-06T08:58:42.767Z,52.5
2023-11-06T09:04:35.762Z,53
2023-11-06T09:10:29.331Z,53.7
2023-11-06T09:16:06.294Z,54.2
2023-11-06T09:21:58.661Z,54
2023-11-06T09:27:53.711Z,54.8
2023-11-06T09:33:47.489Z,55.3
2023-11-06T09:39:40.444Z,55.2
2023-11-06T09:45:16.763Z,56.6
2023-11-06T09:51:12.648Z,57.9
2023-11-06T09:56:53.059Z,59.5
2023-11-06T10:02:30.666Z,60.3
2023-11-06T10:08:23.295Z,60
2023-11-06T10:19:58.841Z,58.4
2023-11-06T10:25:51.833Z,56.9
2023-11-06T10:31:32.362Z,56.7
2023-11-06T10:37:12.941Z,60.8
2023-11-06T10:43:05.965Z,63.3
2023-11-06T10:49:18.023Z,64.8
2023-11-06T10:55:15.463Z,58.4
2023-11-06T11:01:16.133Z,59.8
2023-11-06T11:07:10.418Z,63.6
2023-11-06T11:13:05.078Z,64.9
2023-11-06T11:19:02.314Z,66
2023-11-06T11:24:55.474Z,59.6
2023-11-06T11:30:48.815Z,60.4
2023-11-06T11:36:47.707Z,62.9
2023-11-06T11:42:41.116Z,63
2023-11-06T11:48:33.137Z,59.3
2023-11-06T11:54:25.716Z,59.6
2023-11-06T12:00:02.572Z,58.4
2023-11-06T12:05:56.592Z,55.1
2023-11-06T12:11:54.835Z,57.6
2023-11-06T12:17:53.499Z,62.9
2023-11-06T12:23:47.501Z,59.3
2023-11-06T12:29:25.007Z,57.6
2023-11-06T12:35:20.412Z,54.1
2023-11-06T12:41:12.565Z,54.2
2023-11-06T12:47:19.094Z,56.5
2023-11-06T12:53:13.216Z,60.2
2023-11-06T12:59:04.438Z,56.4
2023-11-06T13:04:59.480Z,51.6
2023-11-06T13:22:16.089Z,52.6
2023-11-06T13:28:06.795Z,52.7
2023-11-06T13:34:01.895Z,52.9
2023-11-06T13:39:54.461Z,52.5
2023-11-06T13:45:46.509Z,51.8
2023-11-06T13:51:38.407Z,50.8
2023-11-06T13:57:48.229Z,49.3
2023-11-06T14:03:25.361Z,48.1
2023-11-06T14:09:17.466Z,46.4
2023-11-06T14:15:09.469Z,44.3
2023-11-06T14:20:45.908Z,42.6
2023-11-06T14:26:37.555Z,41
2023-11-06T14:32:29.448Z,39.1
2023-11-06T14:38:22.161Z,37.3
2023-11-06T14:44:14.453Z,35.5
2023-11-06T14:50:17.971Z,33.6
2023-11-06T14:56:25.234Z,31.6
2023-11-06T15:02:17.423Z,29.6
2023-11-06T15:08:11.567Z,27.8
2023-11-06T15:14:03.560Z,26.1
2023-11-06T15:19:56.641Z,24.6
2023-11-06T15:25:53.389Z,23.3
2023-11-06T15:31:46.028Z,22.1
2023-11-06T15:37:39.757Z,21.1
2023-11-06T15:43:36.159Z,20.1
2023-11-06T15:49:38.678Z,19.3
2023-11-06T15:55:31.400Z,18.6
2023-11-06T16:00:53.423Z,18
2023-11-06T16:06:48.626Z,17.4
2023-11-06T16:12:40.866Z,16.8
2023-11-06T16:18:33.584Z,16.3
2023-11-06T16:24:28.713Z,15.7
2023-11-06T16:30:05.425Z,15.3
2023-11-06T16:36:11.878Z,14.8
2023-11-06T16:42:04.482Z,14.4
2023-11-06T16:47:57.040Z,14.1
2023-11-06T16:53:49.525Z,13.7
2023-11-06T16:59:41.741Z,13.4
2023-11-06T17:05:35.106Z,13.3
2023-11-06T17:11:31.515Z,13
2023-11-06T17:17:27.248Z,12.8
2023-11-06T17:23:25.202Z,12.6
2023-11-06T17:29:17.244Z,12.4
2023-11-06T17:35:10.536Z,12.1
2023-11-06T17:41:02.695Z,11.8
2023-11-06T17:47:00.339Z,11.5
2023-11-06T17:52:52.928Z,11.2
2023-11-06T17:58:45.195Z,11
2023-11-06T18:04:40.962Z,10.6
2023-11-06T18:10:17.376Z,10.4
2023-11-06T18:16:08.472Z,10.1
2023-11-06T18:22:01.946Z,9.8
2023-11-06T18:27:53.611Z,9.6
2023-11-06T18:33:45.619Z,9.4
2023-11-06T18:39:22.932Z,9.2
2023-11-06T18:44:59.153Z,9
2023-11-06T18:50:51.861Z,8.8
2023-11-06T18:56:44.742Z,8.7
2023-11-06T19:02:36.116Z,8.8
2023-11-06T19:08:36.248Z,8.7
2023-11-06T19:14:29.124Z,8.5
2023-11-06T19:20:21.670Z,8.4
2023-11-06T19:26:13.629Z,8.3
2023-11-06T19:32:09.187Z,8.1
2023-11-06T19:38:01.728Z,8
2023-11-06T19:43:53.640Z,7.9
2023-11-06T19:49:50.051Z,7.8
2023-11-06T19:55:41.913Z,7.6
2023-11-06T20:02:09.037Z,7.4
2023-11-06T20:08:02.752Z,7.3
2023-11-06T20:13:54.147Z,7.1
2023-11-06T20:19:47.675Z,7
2023-11-06T20:25:40.362Z,6.9
2023-11-06T20:31:18.707Z,6.8
2023-11-06T20:36:56.606Z,6.7
2023-11-06T20:42:35.703Z,6.6
2023-11-06T20:48:12.029Z,6.6
2023-11-06T20:54:04.967Z,6.5
2023-11-06T20:59:57.450Z,6.6
2023-11-06T21:05:34.903Z,6.7
2023-11-06T21:11:27.171Z,6.6
2023-11-06T21:17:19.395Z,6.5
2023-11-06T21:23:11.446Z,6.4
2023-11-06T21:29:03.667Z,6.4
2023-11-06T21:35:00.262Z,6.2
2023-11-06T21:40:37.134Z,6.1
2023-11-06T21:46:14.248Z,6.1
2023-11-06T21:52:07.118Z,6.1
2023-11-06T21:58:12.807Z,6.1
2023-11-06T22:04:06.477Z,6
2023-11-06T22:09:53.435Z,5.9
2023-11-06T22:15:36.374Z,5.7
2023-11-06T22:21:01.168Z,5.6
2023-11-06T22:26:21.476Z,5.5
2023-11-06T22:32:13.249Z,5.4
2023-11-06T22:38:07.244Z,5.3
2023-11-06T22:43:44.818Z,5.2
2023-11-06T22:49:37.883Z,5.1
2023-11-06T22:55:14.781Z,5
2023-11-06T23:00:51.193Z,4.9
2023-11-06T23:06:28.346Z,4.9
2023-11-06T23:12:20.942Z,4.9
2023-11-06T23:18:13.402Z,4.8
2023-11-06T23:24:05.627Z,4.8
2023-11-06T23:30:02.042Z,4.6
2023-11-06T23:35:55.005Z,4.5
2023-11-06T23:41:58.018Z,4.5
2023-11-06T23:47:50.215Z,4.4
2023-11-06T23:53:43.117Z,4.3
2023-11-06T23:59:34.743Z,4.3
